Aérodrome :
LOGIN :

S'inscrire | Disclaimer

   EN    FR    IT 

 










Légende :    VFR   VFR Marginal   IFR   IFR Intensif   IFR Très Intensif
Visi : 
Plafond : 
>= 8 km
>= 3000ft
5 à 8 km
1000 à 3000 ft
1500m à 5 km
500 à 1000 ft
800 à 1500m
200 à 500 ft
< 800m
< 200 ft
Symboles :   Orages  Brouillard  Fortes neiges  Fortes précipitations  Vent > 20 kt
SIGMETs :   Divers  Orages  Givrage  Turbulence  Onde Orograph.  Cendres Volcan.







- Altitude de l'aérodrome : 31 ft
- Code IATA : INV
- Voir les cartes d'approche


EGPE - Inverness

DERNIER METAR :
  • 190320Z AUTO 25005KT 2400 DZ BKN020/// BKN030/// 04/04 Q1013

METARs EXPIRÉS :
  • 190250Z AUTO 24004KT 2700 DZ BKN024/// 04/04 Q1012
  • 190220Z AUTO 00000KT 5000 DZ BKN030/// 05/05 Q1012
  • 190150Z AUTO 00000KT 5000 DZ BKN031/// 05/05 Q1012
  • 190120Z AUTO 00000KT 6000 DZ OVC035/// 05/05 Q1012
  • 190050Z AUTO 00000KT 7000 -RA FEW028/// BKN035/// 05/05 Q1012

TAF TAF EGPE
Valide du 19 à 03h jusqu'au 19 à 12h UTC


190156Z 1903/1912 24005KT 9999 SCT025
TEMPO 1903/1912 4000 RADZ BKN006
PROB30
TEMPO 1903/1906 2000 BR BKN004
ATIS : +44 1667 464 255
Pas de NOTAMs connus pour ce terrain.



MET'MAP, la Météo Aéronautique d'un coup d'oeil ! - Copyright ORBIFLY Décembre 2007 - Disclaimer

ORBIFLY MET'MAP TEAM :

Programmation & Développement : Alexandra Zaïnal
Conception & Développement : Baudouin d'Aumeries
Co-Programmation & Développement : Marc-Olivier Méhu
Soutien technique & logistique : Manuel Goepfert

Contact : metmap@orbifly.com




SOURCES & CREDITS :

   NOAA